createdAt,value
2018-10-17T00:00:14.383Z,6.55
2018-10-17T00:02:43.406Z,6.15
2018-10-17T00:05:12.021Z,6.05
2018-10-17T00:07:40.632Z,6.60
2018-10-17T00:10:10.812Z,7.20
2018-10-17T00:12:40.335Z,6.30
2018-10-17T00:15:09.412Z,5.85
2018-10-17T00:17:37.976Z,7.12
2018-10-17T00:20:08.547Z,7.22
2018-10-17T00:22:37.095Z,7.67
2018-10-17T00:25:07.047Z,7.55
2018-10-17T00:27:35.937Z,7.10
2018-10-17T00:30:05.152Z,8.35
2018-10-17T00:32:33.718Z,8.15
2018-10-17T00:35:02.308Z,7.95
2018-10-17T00:37:30.857Z,8.35
2018-10-17T00:39:59.400Z,8.00
2018-10-17T00:42:28.463Z,8.40
2018-10-17T00:44:57.026Z,8.35
2018-10-17T00:47:25.573Z,8.85
2018-10-17T00:49:54.126Z,10.30
2018-10-17T00:52:22.663Z,9.58
2018-10-17T00:54:51.263Z,9.90
2018-10-17T00:57:19.779Z,10.32
2018-10-17T00:59:48.308Z,9.95
2018-10-17T01:02:16.871Z,12.15
2018-10-17T01:04:45.555Z,10.55
2018-10-17T01:07:14.206Z,13.38
2018-10-17T01:09:42.675Z,22.10
2018-10-17T01:12:11.236Z,13.15
2018-10-17T01:14:39.792Z,11.25
2018-10-17T01:17:08.423Z,12.00
2018-10-17T01:19:36.922Z,12.20
2018-10-17T01:22:05.930Z,11.28
2018-10-17T01:24:34.894Z,11.00
2018-10-17T01:27:03.492Z,10.85
2018-10-17T01:29:32.048Z,11.45
2018-10-17T01:32:00.587Z,14.03
2018-10-17T01:34:29.259Z,13.60
2018-10-17T01:36:57.809Z,14.83
2018-10-17T01:39:26.358Z,12.25
2018-10-17T01:41:54.912Z,13.60
2018-10-17T01:44:23.459Z,12.98
2018-10-17T01:46:52.045Z,13.20
2018-10-17T01:49:20.595Z,12.63
2018-10-17T01:51:50.029Z,14.03
2018-10-17T01:54:18.789Z,14.43
2018-10-17T01:56:47.339Z,13.65
2018-10-17T01:59:15.952Z,14.40
2018-10-17T02:01:44.451Z,12.98
2018-10-17T02:04:13.081Z,13.80
2018-10-17T02:06:41.632Z,13.58
2018-10-17T02:09:10.422Z,13.25
2018-10-17T02:11:39.326Z,12.70
2018-10-17T02:14:08.217Z,13.53
2018-10-17T02:16:36.776Z,13.65
2018-10-17T02:19:06.022Z,15.08
2018-10-17T02:21:34.572Z,14.38
2018-10-17T02:24:03.128Z,14.05
2018-10-17T02:26:31.695Z,14.10
2018-10-17T02:29:00.257Z,13.60
2018-10-17T02:31:28.807Z,14.33
2018-10-17T02:33:57.355Z,14.33
2018-10-17T02:36:25.903Z,14.70
2018-10-17T02:38:54.458Z,15.10
2018-10-17T02:41:23.150Z,14.50
2018-10-17T02:43:51.682Z,15.80
2018-10-17T02:46:20.241Z,13.08
2018-10-17T02:48:48.982Z,15.63
2018-10-17T02:51:17.539Z,14.78
2018-10-17T02:53:46.094Z,14.10
2018-10-17T02:56:14.887Z,16.05
2018-10-17T02:58:43.432Z,16.32
2018-10-17T03:01:12.053Z,14.98
2018-10-17T03:03:40.552Z,16.77
2018-10-17T03:06:09.382Z,16.60
2018-10-17T03:08:37.952Z,15.83
2018-10-17T03:11:06.583Z,15.78
2018-10-17T03:13:35.125Z,16.75
2018-10-17T03:16:03.695Z,15.85
2018-10-17T03:18:32.249Z,17.65
2018-10-17T03:21:00.813Z,16.85
2018-10-17T03:23:30.223Z,16.25
2018-10-17T03:25:59.251Z,14.58
2018-10-17T03:28:28.003Z,16.25
2018-10-17T03:30:56.568Z,16.70
2018-10-17T03:33:25.111Z,15.25
2018-10-17T03:35:53.747Z,17.27
2018-10-17T03:38:22.237Z,16.65
2018-10-17T03:40:51.308Z,16.67
2018-10-17T03:43:19.823Z,17.00
2018-10-17T03:45:48.376Z,17.05
2018-10-17T03:48:17.020Z,16.93
2018-10-17T03:50:45.597Z,18.45
2018-10-17T03:53:14.579Z,18.12
2018-10-17T03:55:43.143Z,17.85
2018-10-17T03:58:11.679Z,16.57
2018-10-17T04:00:40.243Z,18.60
2018-10-17T04:03:08.810Z,16.65
2018-10-17T04:05:37.355Z,17.87
2018-10-17T04:08:05.904Z,17.37
2018-10-17T04:10:34.448Z,18.50
2018-10-17T04:13:03.661Z,19.37
2018-10-17T04:15:32.260Z,18.40
2018-10-17T04:18:00.799Z,18.48
2018-10-17T04:20:29.343Z,17.87
2018-10-17T04:22:58.253Z,18.65
2018-10-17T04:25:26.830Z,18.25
2018-10-17T04:27:55.675Z,19.27
2018-10-17T04:30:24.479Z,18.52
2018-10-17T04:32:53.019Z,19.52
2018-10-17T04:35:22.031Z,20.23
2018-10-17T04:37:50.664Z,18.82
2018-10-17T04:40:19.215Z,19.90
2018-10-17T04:42:47.763Z,18.55
2018-10-17T04:45:16.342Z,19.80
2018-10-17T04:47:44.964Z,19.25
2018-10-17T04:50:13.464Z,17.77
2018-10-17T04:52:42.459Z,19.05
2018-10-17T04:55:11.616Z,18.80
2018-10-17T04:57:40.734Z,20.55
2018-10-17T05:00:12.271Z,19.82
2018-10-17T05:02:42.102Z,23.92
2018-10-17T05:05:10.844Z,21.68
2018-10-17T05:07:39.357Z,23.30
2018-10-17T05:10:07.984Z,23.75
2018-10-17T05:12:36.526Z,26.12
2018-10-17T05:15:05.814Z,22.30
2018-10-17T05:17:34.466Z,21.62
2018-10-17T05:20:03.100Z,22.13
2018-10-17T05:22:31.646Z,22.20
2018-10-17T05:25:00.260Z,22.75
2018-10-17T05:27:28.787Z,23.20
2018-10-17T05:29:58.040Z,23.10
2018-10-17T05:32:27.179Z,23.70
2018-10-17T05:34:55.770Z,21.60
2018-10-17T05:37:24.384Z,19.82
2018-10-17T05:39:52.911Z,22.02
2018-10-17T05:42:21.759Z,24.67
2018-10-17T05:44:50.373Z,23.45
2018-10-17T05:47:19.367Z,21.95
2018-10-17T05:49:47.912Z,23.73
2018-10-17T05:52:16.450Z,23.57
2018-10-17T05:54:45.131Z,24.45
2018-10-17T05:57:13.692Z,24.30
2018-10-17T05:59:42.224Z,24.63
2018-10-17T06:02:15.720Z,23.27
2018-10-17T06:04:44.156Z,25.82
2018-10-17T06:07:12.801Z,26.62
2018-10-17T06:11:11.336Z,24.12
2018-10-17T06:13:39.940Z,23.07
2018-10-17T06:16:08.491Z,24.87
2018-10-17T06:18:37.059Z,26.55
2018-10-17T06:21:06.310Z,25.25
2018-10-17T06:23:34.960Z,28.23
2018-10-17T06:26:04.195Z,25.10
2018-10-17T06:28:32.750Z,25.60
2018-10-17T06:31:01.613Z,28.60
2018-10-17T06:33:30.316Z,27.30
2018-10-17T06:35:58.852Z,24.98
2018-10-17T06:38:27.624Z,28.30
2018-10-17T06:40:56.709Z,25.90
2018-10-17T06:43:25.646Z,28.77
2018-10-17T06:45:54.203Z,29.05
2018-10-17T06:48:22.753Z,27.98
2018-10-17T06:50:51.885Z,28.07
2018-10-17T06:53:20.444Z,28.90
2018-10-17T06:55:48.995Z,28.00
2018-10-17T06:58:17.554Z,24.55
2018-10-17T07:00:46.106Z,27.30
2018-10-17T07:03:14.895Z,27.85
2018-10-17T07:05:43.445Z,28.15
2018-10-17T07:08:11.995Z,28.02
2018-10-17T07:10:40.888Z,26.70
2018-10-17T07:13:09.488Z,26.17
2018-10-17T07:15:38.118Z,26.30
2018-10-17T07:18:07.535Z,27.58
2018-10-17T07:20:36.103Z,28.38
2018-10-17T07:23:04.733Z,26.12
2018-10-17T07:25:33.248Z,23.10
2018-10-17T07:28:01.801Z,26.25
2018-10-17T07:30:30.342Z,26.65
2018-10-17T07:32:59.615Z,25.45
2018-10-17T07:35:28.199Z,24.05
2018-10-17T07:37:56.754Z,25.30
2018-10-17T07:40:25.315Z,26.05
2018-10-17T07:42:53.879Z,24.30
2018-10-17T07:45:23.268Z,24.77
2018-10-17T07:47:52.080Z,22.85
2018-10-17T07:50:20.664Z,23.83
2018-10-17T07:52:49.532Z,25.70
2018-10-17T07:55:18.594Z,23.22
2018-10-17T07:57:47.634Z,23.47
2018-10-17T08:00:16.659Z,24.15
2018-10-17T08:02:45.215Z,22.17
2018-10-17T08:05:13.826Z,23.65
2018-10-17T08:07:42.645Z,22.58
2018-10-17T08:10:12.187Z,24.45
2018-10-17T08:12:41.046Z,22.42
2018-10-17T08:15:10.551Z,24.45
2018-10-17T08:17:39.573Z,22.73
2018-10-17T08:20:10.541Z,22.87
2018-10-17T08:22:39.376Z,22.75
2018-10-17T08:25:09.735Z,22.02
2018-10-17T08:27:38.310Z,22.32
2018-10-17T08:30:08.325Z,23.05
2018-10-17T08:32:37.196Z,19.37
2018-10-17T08:35:05.999Z,20.57
2018-10-17T08:37:34.909Z,22.60
2018-10-17T08:40:03.171Z,20.05
2018-10-17T08:42:32.184Z,21.45
2018-10-17T08:45:00.776Z,22.90
2018-10-17T08:47:29.516Z,19.98
2018-10-17T08:49:58.325Z,21.62
2018-10-17T08:52:26.903Z,20.15
2018-10-17T08:54:55.667Z,19.12
2018-10-17T08:57:24.215Z,20.10
2018-10-17T08:59:52.959Z,19.23
2018-10-17T09:02:21.596Z,21.57
2018-10-17T09:04:50.135Z,19.73
2018-10-17T09:07:18.795Z,18.12
2018-10-17T09:09:47.752Z,20.50
2018-10-17T09:12:16.405Z,19.37
2018-10-17T09:14:44.879Z,16.62
2018-10-17T09:17:13.763Z,20.00
2018-10-17T09:19:42.948Z,19.73
2018-10-17T09:22:11.693Z,20.40
2018-10-17T09:24:40.099Z,21.05
2018-10-17T09:27:08.660Z,17.60
2018-10-17T09:29:37.199Z,18.95
2018-10-17T09:32:06.399Z,21.17
2018-10-17T09:34:35.139Z,18.87
2018-10-17T09:37:04.146Z,18.48
2018-10-17T09:39:32.680Z,17.92
2018-10-17T09:42:01.317Z,19.02
2018-10-17T09:44:29.984Z,19.42
2018-10-17T09:46:58.641Z,19.10
2018-10-17T09:49:27.155Z,19.17
2018-10-17T09:51:56.164Z,18.60
2018-10-17T09:54:24.773Z,18.48
2018-10-17T09:56:53.319Z,18.23
2018-10-17T09:59:21.946Z,17.87
2018-10-17T10:01:52.591Z,17.67
2018-10-17T10:04:21.641Z,20.35
2018-10-17T10:06:50.316Z,18.40
2018-10-17T10:09:18.903Z,16.73
2018-10-17T10:11:47.723Z,19.55
2018-10-17T10:14:16.303Z,18.92
2018-10-17T10:16:45.279Z,18.07
2018-10-17T10:19:13.883Z,17.67
2018-10-17T10:21:42.442Z,20.12
2018-10-17T10:24:11.058Z,19.85
2018-10-17T10:26:39.579Z,18.55
2018-10-17T10:29:08.410Z,19.77
2018-10-17T10:31:36.951Z,18.42
2018-10-17T10:34:06.060Z,18.05
2018-10-17T10:36:34.558Z,20.30
2018-10-17T10:39:03.767Z,17.67
2018-10-17T10:41:34.012Z,20.23
2018-10-17T10:44:02.588Z,18.70
2018-10-17T10:46:31.141Z,18.75
2018-10-17T10:48:59.690Z,19.48
2018-10-17T10:51:35.473Z,18.62
2018-10-17T10:54:04.142Z,21.25
2018-10-17T10:56:32.705Z,19.25
2018-10-17T10:59:01.329Z,17.90
2018-10-17T11:01:29.853Z,20.35
2018-10-17T11:03:58.427Z,18.95
2018-10-17T11:06:26.999Z,17.52
2018-10-17T11:08:55.541Z,19.27
2018-10-17T11:11:24.083Z,20.10
2018-10-17T11:13:54.080Z,19.25
2018-10-17T11:16:22.681Z,20.30
2018-10-17T11:18:52.139Z,19.15
2018-10-17T11:21:20.703Z,17.77
2018-10-17T11:23:49.268Z,18.12
2018-10-17T11:26:17.815Z,17.70
2018-10-17T11:28:46.387Z,19.30
2018-10-17T11:31:15.120Z,18.70
2018-10-17T11:33:43.658Z,17.92
2018-10-17T11:36:12.212Z,16.55
2018-10-17T11:38:40.754Z,17.73
2018-10-17T11:41:09.380Z,15.32
2018-10-17T11:43:38.022Z,18.80
2018-10-17T11:46:06.591Z,19.37
2018-10-17T11:48:35.180Z,18.30
2018-10-17T11:51:03.763Z,17.60
2018-10-17T11:53:32.374Z,16.23
2018-10-17T11:56:01.203Z,17.25
2018-10-17T11:58:29.759Z,16.42
2018-10-17T12:00:58.371Z,16.48
2018-10-17T12:03:29.109Z,17.85
2018-10-17T12:05:58.081Z,14.45
2018-10-17T12:08:32.185Z,15.83
2018-10-17T12:11:05.846Z,17.70
2018-10-17T12:13:34.403Z,16.02
2018-10-17T12:16:03.175Z,15.40
2018-10-17T12:18:31.771Z,14.90
2018-10-17T12:21:00.334Z,14.90
2018-10-17T12:23:29.352Z,14.55
2018-10-17T12:25:57.903Z,13.93
2018-10-17T12:28:26.530Z,14.00
2018-10-17T12:30:55.059Z,15.03
2018-10-17T12:33:23.986Z,13.90
2018-10-17T12:35:52.546Z,13.50
2018-10-17T12:38:21.151Z,14.07
2018-10-17T12:40:50.176Z,12.18
2018-10-17T12:43:18.962Z,12.25
2018-10-17T12:45:47.804Z,12.35
2018-10-17T12:48:16.690Z,12.88
2018-10-17T12:50:45.250Z,12.35
2018-10-17T12:53:14.160Z,12.50
2018-10-17T12:55:42.677Z,13.10
2018-10-17T12:58:11.299Z,12.30
2018-10-17T13:00:39.936Z,13.13
2018-10-17T13:03:08.500Z,11.88
2018-10-17T13:05:37.331Z,11.25
2018-10-17T13:08:05.920Z,11.48
2018-10-17T13:10:34.472Z,11.20
2018-10-17T13:13:03.105Z,11.28
2018-10-17T13:15:31.658Z,12.47
2018-10-17T13:18:00.507Z,12.15
2018-10-17T13:20:29.051Z,11.88
2018-10-17T13:22:57.654Z,11.38
2018-10-17T13:25:26.183Z,11.12
2018-10-17T13:27:54.747Z,10.45
2018-10-17T13:30:23.316Z,10.23
2018-10-17T13:32:52.323Z,11.12
2018-10-17T13:35:21.155Z,10.10
2018-10-17T13:37:49.711Z,10.75
2018-10-17T13:40:18.265Z,11.57
2018-10-17T13:42:46.873Z,9.00
2018-10-17T13:45:15.491Z,10.88
2018-10-17T13:47:44.054Z,10.95
2018-10-17T13:50:12.659Z,11.00
2018-10-17T13:52:41.664Z,9.13
2018-10-17T13:55:10.270Z,10.10
2018-10-17T13:57:38.921Z,11.30
2018-10-17T14:00:10.800Z,10.70
2018-10-17T14:02:40.163Z,11.40
2018-10-17T14:05:09.188Z,10.72
2018-10-17T14:07:37.735Z,10.43
2018-10-17T14:10:06.319Z,9.65
2018-10-17T14:12:35.272Z,12.07
2018-10-17T14:15:04.159Z,11.00
2018-10-17T14:17:32.739Z,10.10
2018-10-17T14:20:01.283Z,10.63
2018-10-17T14:22:29.986Z,10.30
2018-10-17T14:24:59.163Z,10.98
2018-10-17T14:27:27.735Z,9.73
2018-10-17T14:29:56.346Z,10.60
2018-10-17T14:32:24.871Z,10.50
2018-10-17T14:34:53.419Z,11.12
2018-10-17T14:37:21.967Z,10.85
2018-10-17T14:39:50.652Z,11.33
2018-10-17T14:42:19.303Z,13.13
2018-10-17T14:44:47.998Z,11.43
2018-10-17T14:47:16.540Z,13.58
2018-10-17T14:49:45.088Z,14.75
2018-10-17T14:52:13.666Z,13.45
2018-10-17T14:54:42.360Z,13.72
2018-10-17T14:57:11.007Z,14.75
2018-10-17T14:59:39.503Z,15.60
2018-10-17T15:02:08.088Z,16.35
2018-10-17T15:04:36.632Z,15.70
2018-10-17T15:07:06.001Z,17.05
2018-10-17T15:09:34.552Z,15.70
2018-10-17T15:12:03.100Z,16.90
2018-10-17T15:14:31.651Z,16.95
2018-10-17T15:17:00.367Z,18.77
2018-10-17T15:19:29.678Z,17.12
2018-10-17T15:21:58.262Z,16.07
2018-10-17T15:24:26.868Z,17.75
2018-10-17T15:26:55.681Z,17.15
2018-10-17T15:29:24.210Z,15.58
2018-10-17T15:31:52.806Z,15.58
2018-10-17T15:34:21.490Z,15.70
2018-10-17T15:36:50.130Z,15.98
2018-10-17T15:39:18.640Z,18.67
2018-10-17T15:41:47.191Z,16.48
2018-10-17T15:44:15.750Z,15.68
2018-10-17T15:46:44.299Z,16.95
2018-10-17T15:49:12.846Z,18.05
2018-10-17T15:51:41.867Z,18.85
2018-10-17T15:54:10.523Z,17.67
2018-10-17T15:56:39.001Z,17.45
2018-10-17T15:59:07.592Z,17.35
2018-10-17T16:01:36.144Z,20.05
2018-10-17T16:04:05.299Z,19.92
2018-10-17T16:06:33.846Z,19.32
2018-10-17T16:09:02.540Z,20.10
2018-10-17T16:11:31.215Z,20.12
2018-10-17T16:13:59.796Z,20.57
2018-10-17T16:16:28.331Z,19.70
2018-10-17T16:18:56.881Z,19.70
2018-10-17T16:21:25.482Z,19.23
2018-10-17T16:23:54.059Z,20.17
2018-10-17T16:26:22.605Z,18.82
2018-10-17T16:28:51.163Z,20.23
2018-10-17T16:31:19.768Z,20.55
2018-10-17T16:33:48.300Z,20.17
2018-10-17T16:36:16.936Z,19.48
2018-10-17T16:38:45.558Z,18.57
2018-10-17T16:41:14.476Z,19.30
2018-10-17T16:43:43.019Z,16.50
2018-10-17T16:46:11.799Z,18.10
2018-10-17T16:48:40.338Z,17.07
2018-10-17T16:51:08.923Z,16.73
2018-10-17T16:53:37.491Z,17.25
2018-10-17T16:56:06.864Z,19.60
2018-10-17T16:58:35.948Z,17.57
2018-10-17T17:01:04.579Z,18.12
2018-10-17T17:03:33.175Z,18.77
2018-10-17T17:06:01.790Z,17.77
2018-10-17T17:08:30.305Z,18.52
2018-10-17T17:10:59.215Z,22.58
2018-10-17T17:13:27.763Z,18.50
2018-10-17T17:15:57.190Z,19.62
2018-10-17T17:18:25.758Z,18.80
2018-10-17T17:20:54.438Z,18.15
2018-10-17T17:23:23.031Z,17.02
2018-10-17T17:25:51.585Z,16.82
2018-10-17T17:28:20.164Z,17.80
2018-10-17T17:30:48.740Z,18.10
2018-10-17T17:33:17.374Z,17.25
2018-10-17T17:35:46.791Z,15.80
2018-10-17T17:38:15.539Z,17.40
2018-10-17T17:40:44.115Z,17.07
2018-10-17T17:43:12.964Z,17.20
2018-10-17T17:45:41.509Z,17.62
2018-10-17T17:48:10.307Z,17.12
2018-10-17T17:50:39.198Z,20.10
2018-10-17T17:53:07.771Z,16.07
2018-10-17T17:55:37.266Z,20.35
2018-10-17T17:58:05.889Z,17.95
2018-10-17T18:00:34.435Z,15.80
2018-10-17T18:03:02.979Z,17.00
2018-10-17T18:05:31.787Z,14.07
2018-10-17T18:08:00.581Z,16.75
2018-10-17T18:10:29.130Z,15.43
2018-10-17T18:12:57.682Z,16.35
2018-10-17T18:15:26.235Z,14.03
2018-10-17T18:17:54.810Z,15.63
2018-10-17T18:20:24.097Z,15.30
2018-10-17T18:22:52.638Z,13.58
2018-10-17T18:25:21.184Z,14.15
2018-10-17T18:27:49.960Z,13.13
2018-10-17T18:30:18.500Z,13.35
2018-10-17T18:32:47.431Z,12.68
2018-10-17T18:35:15.980Z,11.78
2018-10-17T18:37:44.555Z,12.10
2018-10-17T18:40:13.147Z,14.00
2018-10-17T18:42:42.568Z,14.53
2018-10-17T18:45:11.139Z,11.55
2018-10-17T18:47:39.806Z,10.60
2018-10-17T18:50:08.583Z,10.10
2018-10-17T18:52:37.213Z,9.08
2018-10-17T18:55:06.583Z,9.03
2018-10-17T18:57:35.128Z,9.60
2018-10-17T19:00:13.391Z,9.30
2018-10-17T19:02:41.923Z,9.70
2018-10-17T19:05:10.455Z,9.83
2018-10-17T19:07:39.123Z,10.25
2018-10-17T19:10:07.742Z,10.65
2018-10-17T19:12:36.278Z,11.43
2018-10-17T19:15:05.521Z,11.78
2018-10-17T19:17:34.055Z,10.70
2018-10-17T19:20:02.888Z,9.13
2018-10-17T19:22:31.427Z,9.15
2018-10-17T19:24:59.961Z,9.60
2018-10-17T19:27:28.503Z,9.60
2018-10-17T19:29:57.069Z,8.13
2018-10-17T19:32:25.971Z,8.33
2018-10-17T19:34:54.550Z,8.18
2018-10-17T19:37:23.118Z,7.97
2018-10-17T19:39:52.009Z,8.30
2018-10-17T19:42:20.548Z,8.48
2018-10-17T19:44:49.102Z,9.40
2018-10-17T19:47:17.639Z,8.40
2018-10-17T19:49:52.391Z,8.20
2018-10-17T19:52:30.451Z,8.13
2018-10-17T19:54:59.200Z,9.58
2018-10-17T19:57:30.447Z,8.48
2018-10-17T20:00:01.379Z,7.97
2018-10-17T20:02:32.823Z,8.28
2018-10-17T20:05:05.261Z,9.18
2018-10-17T20:07:38.123Z,7.65
2018-10-17T20:10:13.697Z,8.00
2018-10-17T20:12:42.267Z,8.65
2018-10-17T20:15:13.714Z,9.20
2018-10-17T20:17:49.291Z,8.43
2018-10-17T20:20:19.335Z,7.70
2018-10-17T20:22:47.917Z,9.43
2018-10-17T20:25:16.523Z,10.25
2018-10-17T20:27:45.781Z,9.53
2018-10-17T20:30:14.494Z,9.85
2018-10-17T20:32:43.036Z,9.98
2018-10-17T20:35:11.713Z,10.23
2018-10-17T20:37:40.623Z,10.45
2018-10-17T20:40:09.212Z,9.28
2018-10-17T20:42:37.916Z,8.38
2018-10-17T20:45:07.425Z,11.18
2018-10-17T20:47:35.983Z,8.65
2018-10-17T20:50:04.885Z,7.85
2018-10-17T20:52:33.439Z,7.35
2018-10-17T20:55:02.265Z,7.15
2018-10-17T20:57:30.834Z,8.35
2018-10-17T20:59:59.379Z,7.60
2018-10-17T21:02:28.024Z,7.58
2018-10-17T21:04:56.546Z,8.20
2018-10-17T21:07:25.099Z,8.10
2018-10-17T21:09:53.649Z,7.37
2018-10-17T21:12:22.188Z,8.68
2018-10-17T21:14:50.715Z,9.18
2018-10-17T21:17:19.263Z,8.25
2018-10-17T21:19:47.807Z,9.05
2018-10-17T21:22:16.641Z,9.25
2018-10-17T21:24:45.204Z,9.50
2018-10-17T21:27:13.747Z,8.40
2018-10-17T21:29:42.287Z,8.08
2018-10-17T21:32:10.850Z,9.53
2018-10-17T21:34:39.419Z,8.65
2018-10-17T21:37:07.965Z,7.92
2018-10-17T21:39:36.516Z,9.85
2018-10-17T21:42:05.106Z,9.90
2018-10-17T21:44:33.659Z,9.08
2018-10-17T21:47:02.307Z,8.78
2018-10-17T21:49:30.841Z,7.80
2018-10-17T21:51:59.375Z,8.90
2018-10-17T21:54:27.946Z,7.90
2018-10-17T21:56:56.494Z,9.05
2018-10-17T21:59:25.037Z,8.83
2018-10-17T22:01:53.861Z,8.98
2018-10-17T22:04:22.491Z,8.75
2018-10-17T22:06:51.023Z,8.75
2018-10-17T22:09:19.572Z,8.95
2018-10-17T22:11:48.113Z,8.40
2018-10-17T22:14:16.754Z,8.18
2018-10-17T22:16:50.565Z,8.23
2018-10-17T22:19:20.157Z,8.73
2018-10-17T22:21:48.576Z,8.38
2018-10-17T22:24:17.134Z,8.75
2018-10-17T22:26:45.680Z,7.92
2018-10-17T22:29:14.227Z,10.95
2018-10-17T22:31:42.972Z,9.45
2018-10-17T22:34:11.523Z,9.30
2018-10-17T22:36:40.192Z,8.23
2018-10-17T22:39:12.696Z,9.48
2018-10-17T22:41:41.598Z,9.95
2018-10-17T22:44:10.654Z,10.93
2018-10-17T22:46:39.176Z,8.60
2018-10-17T22:49:08.799Z,8.65
2018-10-17T22:51:37.791Z,8.30
2018-10-17T22:54:06.763Z,9.70
2018-10-17T22:56:35.339Z,9.58
2018-10-17T22:59:03.908Z,9.43
2018-10-17T23:01:32.937Z,8.13
2018-10-17T23:04:01.480Z,9.00
2018-10-17T23:06:30.079Z,9.10
2018-10-17T23:08:58.627Z,8.55
2018-10-17T23:11:27.183Z,9.80
2018-10-17T23:13:55.980Z,8.38
2018-10-17T23:16:24.518Z,10.00
2018-10-17T23:18:53.066Z,9.33
2018-10-17T23:25:56.873Z,9.03
2018-10-17T23:28:25.411Z,9.40
2018-10-17T23:30:53.977Z,9.30
2018-10-17T23:33:22.527Z,9.40
2018-10-17T23:35:51.059Z,9.78
2018-10-17T23:38:19.968Z,11.10
2018-10-17T23:40:48.520Z,11.12
2018-10-17T23:43:17.060Z,9.98
2018-10-17T23:45:45.599Z,11.63
2018-10-17T23:48:14.734Z,11.55
2018-10-17T23:50:43.139Z,11.48
2018-10-17T23:53:11.683Z,10.08
2018-10-17T23:55:40.309Z,9.48
2018-10-17T23:58:08.867Z,10.30
